Time;durP1;ratioP1;P1;durP2;ratioP2;P2;SDS_P1;SDS_P2;PMS_P1;PMS_P2;Temp;Humidity;BMP_temperature;BMP_pressure;BME280_temperature;BME280_humidity;BME280_pressure;Samples;Min_cycle;Max_cycle;Signal;HPM_P1;HPM_P2
2021/04/03 00:00:33;;;;;;;16.25;3.33;;;6.50;75.20;5.40;102506.00;;;;4963131;28;20111;-80
2021/04/03 00:02:59;;;;;;;14.13;3.17;;;6.50;74.60;5.40;102515.00;;;;4937949;28;20051;-81
2021/04/03 00:05:27;;;;;;;13.32;2.58;;;6.40;74.30;5.30;102513.00;;;;4930984;28;20051;-81
2021/04/03 00:07:54;;;;;;;20.00;3.28;;;6.40;73.90;5.20;102504.00;;;;4941368;28;20463;-81
2021/04/03 00:10:28;;;;;;;14.98;2.40;;;7.70;74.40;5.30;102507.00;;;;4924100;28;20050;-80
2021/04/03 00:12:58;;;;;;;18.15;3.13;;;6.30;73.60;5.20;102526.00;;;;4924072;29;20052;-81
2021/04/03 00:15:25;;;;;;;16.48;2.92;;;6.40;73.70;5.20;102514.00;;;;4937484;28;20623;-81
2021/04/03 00:17:52;;;;;;;16.60;3.17;;;6.30;73.40;5.20;102516.00;;;;4910500;28;20075;-81
2021/04/03 00:20:21;;;;;;;17.73;2.92;;;6.30;73.40;5.20;102518.00;;;;4939334;28;20264;-80
2021/04/03 00:22:47;;;;;;;16.58;2.40;;;6.30;73.40;5.20;102511.00;;;;4923762;29;20767;-80
2021/04/03 00:25:15;;;;;;;15.90;2.60;;;6.30;73.40;5.30;102515.00;;;;4938290;28;20587;-80
2021/04/03 00:27:42;;;;;;;18.90;3.35;;;6.30;73.50;5.20;102518.00;;;;4941535;28;20046;-81
2021/04/03 00:30:17;;;;;;;;;;;6.30;73.50;5.20;102506.00;;;;4938220;28;20152;-78
2021/04/03 00:32:54;;;;;;;17.08;2.42;;;6.30;73.30;5.20;102508.00;;;;4898094;28;19930;-80
2021/04/03 00:35:26;;;;;;;13.73;3.00;;;6.40;73.40;5.20;102508.00;;;;4935888;28;20050;-79
2021/04/03 00:37:54;;;;;;;14.50;2.63;;;;;5.20;102507.00;;;;4906326;28;20174;-80
2021/04/03 00:40:34;;;;;;;17.52;2.80;;;6.30;73.20;5.20;102505.00;;;;4908520;28;21020;-80
2021/04/03 00:43:03;;;;;;;16.20;3.10;;;6.30;73.20;5.20;102505.00;;;;4905505;29;20142;-78
2021/04/03 00:45:31;;;;;;;18.27;2.55;;;6.30;73.30;5.20;102509.00;;;;4940769;28;20044;-80
2021/04/03 00:47:57;;;;;;;9.95;2.30;;;6.40;73.30;5.30;102507.00;;;;4934056;28;20892;-80
2021/04/03 00:50:27;;;;;;;23.95;3.92;;;6.30;73.40;5.20;102498.00;;;;4905281;29;20521;-80
2021/04/03 00:52:55;;;;;;;20.30;2.65;;;6.40;73.10;5.20;102501.00;;;;4921069;28;20795;-80
2021/04/03 00:55:22;;;;;;;22.17;2.63;;;6.30;73.10;5.20;102487.00;;;;4906935;29;20047;-79
2021/04/03 00:57:49;;;;;;;18.83;2.70;;;6.30;73.10;5.20;102495.00;;;;4909151;29;20078;-79
2021/04/03 01:00:19;;;;;;;15.45;2.72;;;6.40;73.40;5.30;102490.00;;;;4938014;28;20047;-79
2021/04/03 01:02:46;;;;;;;17.83;2.60;;;6.40;73.00;5.30;102490.00;;;;4935317;28;20028;-80
2021/04/03 01:05:21;;;;;;;14.55;2.45;;;6.40;73.40;5.30;102506.00;;;;4938494;28;20051;-80
2021/04/03 01:07:49;;;;;;;12.73;2.40;;;6.40;73.10;5.30;102498.00;;;;4935573;28;20097;-81
2021/04/03 01:10:36;;;;;;;18.70;2.95;;;6.40;73.00;5.30;102502.00;;;;4925424;29;20498;-78
2021/04/03 01:13:52;;;;;;;20.33;2.60;;;6.40;73.10;5.20;102496.00;;;;4938089;28;20047;-79
2021/04/03 01:16:40;;;;;;;11.82;2.50;;;6.40;73.00;5.30;102488.00;;;;4919526;28;20047;-81
2021/04/03 01:19:31;;;;;;;21.45;2.97;;;;;5.30;102490.00;;;;4919555;29;20199;-81
2021/04/03 01:22:35;;;;;;;18.83;2.80;;;6.40;72.80;5.20;102492.00;;;;4937104;28;20086;-80
2021/04/03 01:25:53;;;;;;;20.90;3.53;;;6.40;72.70;5.20;102480.00;;;;4919597;29;20051;-80
2021/04/03 01:29:07;;;;;;;16.92;3.65;;;6.40;73.00;5.20;102484.00;;;;4874133;28;20058;-80
2021/04/03 01:31:37;;;;;;;23.85;4.03;;;6.30;72.90;5.30;102492.00;;;;4937234;28;20146;-80
2021/04/03 01:34:05;;;;;;;22.58;4.45;;;6.40;72.90;5.30;102485.00;;;;4918251;28;20134;-79
2021/04/03 01:36:35;;;;;;;18.52;3.55;;;6.40;73.30;5.30;102483.00;;;;4909029;28;20425;-79
2021/04/03 01:39:16;;;;;;;17.25;3.45;;;6.40;73.10;5.30;102484.00;;;;4915896;29;20063;-78
2021/04/03 01:41:47;;;;;;;26.15;3.97;;;6.40;73.30;5.30;102483.00;;;;4916410;29;22865;-79
2021/04/03 01:44:48;;;;;;;19.98;4.57;;;6.40;73.10;5.30;102491.00;;;;4920514;28;20445;-80
2021/04/03 01:47:28;;;;;;;22.55;4.45;;;6.40;73.20;5.30;102482.00;;;;4929733;28;20051;-79
2021/04/03 01:49:56;;;;;;;17.08;3.80;;;6.40;73.10;5.30;102485.00;;;;4921721;28;20047;-79
2021/04/03 01:52:30;;;;;;;24.67;5.28;;;6.40;73.60;5.30;102494.00;;;;4921440;29;20059;-80
2021/04/03 01:55:00;;;;;;;22.13;3.83;;;6.40;73.10;5.30;102487.00;;;;4923190;29;20046;-80
2021/04/03 01:57:32;;;;;;;18.75;3.60;;;6.40;73.10;5.30;102492.00;;;;4924406;28;20039;-80
2021/04/03 02:00:11;;;;;;;19.02;3.42;;;6.40;73.10;5.30;102495.00;;;;4934341;28;20039;-80
2021/04/03 02:02:44;;;;;;;22.23;3.42;;;6.50;73.00;5.30;102494.00;;;;4937995;28;20062;-80
2021/04/03 02:05:16;;;;;;;16.23;3.88;;;6.50;73.40;5.30;102493.00;;;;4908318;28;20054;-80
2021/04/03 02:07:49;;;;;;;24.67;3.70;;;6.40;73.20;5.30;102497.00;;;;4904693;29;20043;-79
2021/04/03 02:10:22;;;;;;;23.08;3.47;;;6.40;73.00;5.30;102500.00;;;;4921190;29;20501;-80
2021/04/03 02:12:48;;;;;;;19.95;4.10;;;6.40;73.00;5.30;102502.00;;;;4919904;28;20043;-80
2021/04/03 02:15:25;;;;;;;21.40;4.40;;;6.40;73.20;5.30;102497.00;;;;4920204;28;20043;-79
2021/04/03 02:17:57;;;;;;;22.98;4.07;;;6.40;73.10;5.30;102496.00;;;;4933588;28;20055;-80
2021/04/03 02:20:28;;;;;;;14.95;3.63;;;6.50;73.10;5.40;102494.00;;;;4936300;28;20058;-81
2021/04/03 02:22:54;;;;;;;19.88;3.63;;;6.50;73.20;5.40;102504.00;;;;4936891;28;20047;-80
2021/04/03 02:25:26;;;;;;;26.15;4.40;;;6.50;73.20;5.40;102496.00;;;;4918961;29;21807;-80
2021/04/03 02:27:53;;;;;;;24.52;3.72;;;6.50;73.30;5.40;102493.00;;;;4936139;28;20123;-80
2021/04/03 02:30:23;;;;;;;17.45;3.38;;;6.50;73.20;5.40;102499.00;;;;4917368;28;20051;-80
2021/04/03 02:32:55;;;;;;;21.13;3.65;;;6.50;73.30;5.40;102481.00;;;;4933963;28;20529;-80
2021/04/03 02:35:26;;;;;;;19.90;3.65;;;6.50;73.10;5.50;102495.00;;;;4917591;28;20062;-78
2021/04/03 02:38:01;;;;;;;17.83;3.10;;;6.50;74.10;5.40;102481.00;;;;4933208;28;20040;-80
2021/04/03 02:40:31;;;;;;;16.77;2.83;;;6.50;73.00;5.40;102493.00;;;;4918048;28;20055;-80
2021/04/03 02:43:42;;;;;;;20.70;3.88;;;6.50;72.90;5.40;102486.00;;;;4904477;28;20626;-80
2021/04/03 02:46:15;;;;;;;;;;;6.50;73.00;5.40;102489.00;;;;4938407;28;20077;-81
2021/04/03 02:48:49;;;;;;;23.98;3.25;;;6.50;73.00;5.40;102488.00;;;;4904418;29;19981;-80
2021/04/03 02:51:30;;;;;;;;;;;6.50;72.90;5.40;102497.00;;;;4905842;29;20106;-80
2021/04/03 02:53:58;;;;;;;22.25;3.65;;;6.50;72.90;5.40;102501.00;;;;4919734;28;19930;-80
2021/04/03 02:56:27;;;;;;;18.30;3.55;;;6.50;72.50;5.40;102500.00;;;;4935286;28;20304;-80
2021/04/03 02:58:55;;;;;;;23.80;3.22;;;6.50;72.30;5.40;102498.00;;;;4920052;29;20675;-80
2021/04/03 03:01:23;;;;;;;19.48;3.38;;;6.60;72.40;5.40;102491.00;;;;4889252;29;20143;-80
2021/04/03 03:03:57;;;;;;;25.63;3.35;;;6.60;72.40;5.50;102502.00;;;;4917585;28;20146;-80
2021/04/03 03:06:27;;;;;;;27.70;3.53;;;6.60;72.20;5.40;102489.00;;;;4918631;28;20043;-80
2021/04/03 03:08:54;;;;;;;19.08;2.95;;;6.60;71.90;5.50;102499.00;;;;4904612;28;20047;-80
2021/04/03 03:11:26;;;;;;;20.02;3.05;;;6.60;71.80;5.40;102491.00;;;;4909269;29;20055;-78
2021/04/03 03:13:54;;;;;;;17.63;2.67;;;6.60;71.90;5.50;102481.00;;;;4922611;28;20082;-79
2021/04/03 03:16:25;;;;;;;19.08;3.10;;;6.60;71.80;5.50;102491.00;;;;4921380;29;20549;-80
2021/04/03 03:18:53;;;;;;;22.73;3.35;;;6.60;71.80;5.50;102487.00;;;;4927813;28;20051;-79
2021/04/03 03:21:22;;;;;;;18.35;2.90;;;6.60;71.60;5.50;102489.00;;;;4920420;28;20062;-79
2021/04/03 03:23:49;;;;;;;21.48;3.20;;;6.60;71.80;5.40;102472.00;;;;4932764;28;20629;-79
2021/04/03 03:26:15;;;;;;;21.25;4.00;;;6.60;71.80;5.50;102469.00;;;;4911640;28;20058;-82
2021/04/03 03:28:43;;;;;;;20.63;4.07;;;6.60;71.60;5.40;102476.00;;;;4909493;29;20035;-79
2021/04/03 03:31:10;;;;;;;27.52;4.90;;;6.60;71.50;5.50;102469.00;;;;4903137;29;20047;-79
2021/04/03 03:33:36;;;;;;;23.10;5.22;;;6.60;71.40;5.50;102467.00;;;;4940013;28;20195;-77
2021/04/03 03:36:08;;;;;;;33.03;6.20;;;6.60;71.50;5.50;102471.00;;;;4895242;29;20051;-79
2021/04/03 03:38:36;;;;;;;25.63;4.45;;;6.60;71.10;5.50;102471.00;;;;4907930;28;20486;-79
2021/04/03 03:41:05;;;;;;;18.77;3.50;;;6.60;71.40;5.50;102481.00;;;;4909349;28;20119;-78
2021/04/03 03:43:34;;;;;;;20.17;4.22;;;6.60;71.20;5.50;102487.00;;;;4922091;28;20085;-79
2021/04/03 03:46:03;;;;;;;20.13;2.58;;;;;5.50;102486.00;;;;4893183;28;20154;-79
2021/04/03 03:48:31;;;;;;;17.52;2.72;;;6.60;71.10;5.40;102476.00;;;;4922682;28;20131;-78
2021/04/03 03:50:57;;;;;;;18.65;3.97;;;6.50;71.10;5.40;102480.00;;;;4920744;28;20051;-78
2021/04/03 03:53:23;;;;;;;17.73;3.20;;;6.50;71.00;5.40;102477.00;;;;4935966;28;20047;-78
2021/04/03 03:55:49;;;;;;;19.30;3.70;;;6.60;71.40;5.40;102493.00;;;;4925958;28;20065;-79
2021/04/03 03:58:21;;;;;;;22.15;4.10;;;6.50;71.30;5.40;102494.00;;;;4911282;28;20061;-79
2021/04/03 04:00:50;;;;;;;27.98;4.70;;;6.50;71.20;5.50;102500.00;;;;4941387;28;20058;-79
2021/04/03 04:03:19;;;;;;;28.92;5.07;;;6.50;71.20;5.40;102503.00;;;;4939110;28;20110;-79
2021/04/03 04:05:50;;;;;;;25.02;4.53;;;6.60;71.40;5.50;102496.00;;;;4920405;29;20497;-79
2021/04/03 04:08:20;;;;;;;24.27;4.40;;;6.20;71.00;5.50;102504.00;;;;4921890;28;20557;-80
2021/04/03 04:10:50;;;;;;;20.98;3.50;;;6.60;71.30;5.40;102499.00;;;;4925737;28;20043;-79
2021/04/03 04:13:19;;;;;;;21.95;3.13;;;6.50;71.30;5.40;102496.00;;;;4930736;28;20082;-79
2021/04/03 04:15:47;;;;;;;24.08;3.25;;;;;5.40;102508.00;;;;4921435;28;20047;-79
2021/04/03 04:18:13;;;;;;;26.88;3.35;;;6.50;71.40;5.30;102499.00;;;;4932427;28;20047;-80
2021/04/03 04:20:40;;;;;;;35.47;4.20;;;6.50;71.50;5.30;102515.00;;;;4927013;28;20043;-79
2021/04/03 04:23:12;;;;;;;26.85;4.15;;;6.50;71.50;5.30;102520.00;;;;4936825;28;20051;-80
2021/04/03 04:25:42;;;;;;;22.08;3.50;;;6.40;71.80;5.30;102530.00;;;;4921266;28;20063;-80
2021/04/03 04:28:12;;;;;;;27.90;3.25;;;6.40;71.90;5.20;102519.00;;;;4923864;29;20117;-80
2021/04/03 04:30:39;;;;;;;23.58;3.13;;;6.30;72.10;5.20;102520.00;;;;4921354;29;20079;-80
2021/04/03 04:33:08;;;;;;;18.75;3.33;;;6.30;72.30;5.10;102520.00;;;;4918345;28;20046;-80
2021/04/03 04:35:34;;;;;;;27.02;3.90;;;6.30;72.40;5.10;102527.00;;;;4935628;28;20099;-80
2021/04/03 04:38:03;;;;;;;22.80;3.47;;;6.20;72.50;5.00;102530.00;;;;4936621;28;20073;-80
2021/04/03 04:40:37;;;;;;;40.63;4.15;;;6.20;73.00;5.00;102524.00;;;;4909168;29;20058;-80
2021/04/03 04:43:03;;;;;;;18.92;4.15;;;6.20;72.90;5.00;102535.00;;;;4907656;28;20055;-79
2021/04/03 04:45:36;;;;;;;25.63;3.50;;;6.10;73.10;4.90;102546.00;;;;4920668;28;20506;-80
2021/04/03 04:48:02;;;;;;;31.65;3.70;;;6.10;73.10;4.90;102539.00;;;;4920619;28;20059;-79
2021/04/03 04:50:30;;;;;;;29.58;4.05;;;6.00;73.10;4.80;102530.00;;;;4935346;28;20047;-79
2021/04/03 04:52:57;;;;;;;27.77;4.18;;;6.00;73.10;4.80;102548.00;;;;4901718;29;20044;-80
2021/04/03 04:55:27;;;;;;;23.38;3.53;;;5.90;73.30;4.80;102546.00;;;;4935495;28;20562;-80
2021/04/03 04:57:54;;;;;;;25.50;3.38;;;5.90;73.30;4.70;102541.00;;;;4906968;28;20498;-80
2021/04/03 05:00:25;;;;;;;29.50;4.28;;;5.90;73.50;4.70;102541.00;;;;4917953;29;20182;-80
2021/04/03 05:03:05;;;;;;;28.80;4.00;;;5.90;73.80;4.60;102552.00;;;;4910992;28;20090;-81
2021/04/03 05:05:31;;;;;;;26.55;3.67;;;5.80;73.70;4.60;102548.00;;;;4935704;28;20507;-81
2021/04/03 05:07:56;;;;;;;24.75;3.53;;;5.80;73.90;4.50;102553.00;;;;4938652;28;20051;-80
2021/04/03 05:10:23;;;;;;;27.70;3.95;;;5.70;74.30;4.50;102554.00;;;;4909266;29;20061;-80
2021/04/03 05:12:48;;;;;;;29.48;4.40;;;5.70;74.30;4.60;102561.00;;;;4935768;28;20051;-77
2021/04/03 05:15:14;;;;;;;26.88;3.92;;;5.70;74.70;4.50;102558.00;;;;4906995;29;20047;-80
2021/04/03 05:17:40;;;;;;;28.05;3.85;;;5.70;74.70;4.50;102562.00;;;;4932875;28;20039;-80
2021/04/03 05:20:07;;;;;;;22.98;3.90;;;5.80;75.10;4.60;102560.00;;;;4926607;28;20157;-80
2021/04/03 05:22:33;;;;;;;32.25;4.22;;;5.70;75.30;4.60;102568.00;;;;4922763;28;20043;-79
2021/04/03 05:24:59;;;;;;;27.33;3.97;;;5.80;74.60;4.60;102569.00;;;;4940915;28;20050;-79
2021/04/03 05:27:25;;;;;;;28.83;4.22;;;5.80;74.60;4.60;102565.00;;;;4940758;28;20039;-79
2021/04/03 05:29:51;;;;;;;36.50;4.35;;;5.80;74.80;4.70;102568.00;;;;4939885;28;20063;-80
2021/04/03 05:32:17;;;;;;;25.55;4.18;;;5.80;75.30;4.70;102573.00;;;;4907202;28;20066;-79
2021/04/03 05:34:45;;;;;;;38.35;4.68;;;5.90;74.60;4.70;102580.00;;;;4950643;28;20039;-80
2021/04/03 05:37:11;;;;;;;29.30;4.85;;;;;4.80;102584.00;;;;4945165;29;20051;-80
2021/04/03 05:39:37;;;;;;;32.80;5.07;;;5.90;74.70;4.80;102586.00;;;;4957864;28;20063;-81
2021/04/03 05:42:05;;;;;;;35.70;4.97;;;6.00;75.10;4.80;102593.00;;;;4932474;28;20704;-82
2021/04/03 05:44:31;;;;;;;41.35;4.78;;;;;4.80;102601.00;;;;4907775;29;20031;-82
2021/04/03 05:46:59;;;;;;;25.70;4.43;;;6.00;75.30;4.80;102602.00;;;;4906209;29;20067;-82
2021/04/03 05:49:25;;;;;;;34.17;5.50;;;6.00;76.00;4.80;102604.00;;;;4908069;28;20051;-81
2021/04/03 05:51:51;;;;;;;27.20;3.78;;;6.00;75.00;4.90;102605.00;;;;4920100;29;21006;-82
2021/04/03 05:54:19;;;;;;;31.73;5.07;;;6.00;75.20;4.90;102612.00;;;;4905877;28;20163;-82
2021/04/03 05:56:45;;;;;;;29.75;5.05;;;6.10;75.40;4.90;102612.00;;;;4922997;28;20082;-81
2021/04/03 05:59:11;;;;;;;35.40;4.80;;;;;4.90;102623.00;;;;4918675;29;20509;-82
2021/04/03 06:01:38;;;;;;;28.80;4.53;;;6.10;75.20;5.00;102626.00;;;;4941478;28;20572;-84
2021/04/03 06:04:04;;;;;;;32.47;4.68;;;6.10;75.40;5.00;102623.00;;;;4935676;28;20130;-82
2021/04/03 06:06:30;;;;;;;32.88;4.70;;;6.20;76.00;5.10;102623.00;;;;4919441;28;20059;-83
2021/04/03 06:08:56;;;;;;;36.97;4.78;;;6.20;75.40;5.10;102625.00;;;;4908813;29;20039;-83
2021/04/03 06:11:23;;;;;;;29.67;4.07;;;6.30;75.20;5.20;102644.00;;;;4929139;29;20637;-83
2021/04/03 06:13:58;;;;;;;37.97;5.22;;;6.30;76.40;5.20;102647.00;;;;4929670;29;20609;-83
2021/04/03 06:16:36;;;;;;;32.17;4.78;;;6.30;75.50;5.20;102649.00;;;;4941461;28;20039;-83
2021/04/03 06:19:30;;;;;;;25.98;4.10;;;6.30;76.20;5.20;102650.00;;;;4929071;28;20035;-83
2021/04/03 06:22:03;;;;;;;43.38;5.38;;;6.30;76.10;5.20;102656.00;;;;4925673;29;20067;-83
2021/04/03 06:24:35;;;;;;;33.30;5.25;;;6.40;75.80;5.20;102656.00;;;;4945297;28;20557;-81
2021/04/03 06:27:17;;;;;;;30.30;4.53;;;6.40;75.90;5.30;102656.00;;;;4941194;28;20066;-82
2021/04/03 06:30:15;;;;;;;35.65;5.00;;;6.40;76.10;5.30;102654.00;;;;4935737;29;20174;-86
2021/04/03 06:32:45;;;;;;;37.23;5.00;;;6.40;76.20;5.30;102663.00;;;;4947448;28;20067;-87
2021/04/03 06:35:11;;;;;;;29.08;4.65;;;6.40;75.90;5.30;102656.00;;;;4925282;29;20292;-82
2021/04/03 06:37:38;;;;;;;31.02;4.65;;;6.40;75.70;5.30;102667.00;;;;4922148;28;20043;-81
2021/04/03 06:40:11;;;;;;;38.50;6.05;;;6.50;76.00;5.40;102669.00;;;;4918625;29;20530;-81
2021/04/03 06:42:57;;;;;;;41.60;5.15;;;6.50;76.00;5.40;102663.00;;;;4936709;28;20053;-83
2021/04/03 06:45:36;;;;;;;29.70;5.22;;;6.60;75.30;5.50;102672.00;;;;4936515;28;20107;-81
2021/04/03 06:48:05;;;;;;;34.65;4.68;;;;;5.50;102679.00;;;;4919848;29;20438;-84
2021/04/03 06:50:46;;;;;;;33.65;5.28;;;6.60;75.70;5.50;102694.00;;;;4920458;29;20486;-82
2021/04/03 06:53:18;;;;;;;36.60;5.20;;;6.60;75.90;5.50;102701.00;;;;4921012;29;20533;-81
2021/04/03 06:55:49;;;;;;;33.17;5.38;;;6.60;75.70;5.50;102685.00;;;;4936010;28;20126;-83
2021/04/03 06:58:15;;;;;;;30.67;5.22;;;6.70;76.00;5.60;102694.00;;;;4920016;29;21070;-78
2021/04/03 07:00:42;;;;;;;36.75;4.93;;;6.60;75.60;5.60;102689.00;;;;4934496;28;20043;-79
2021/04/03 07:03:19;;;;;;;30.15;5.03;;;6.70;75.60;5.60;102696.00;;;;4936172;28;20051;-80
2021/04/03 07:05:46;;;;;;;34.60;5.32;;;6.70;75.90;5.60;102697.00;;;;4914460;28;20560;-81
2021/04/03 07:08:13;;;;;;;27.90;5.53;;;6.70;75.70;5.60;102687.00;;;;4919843;28;20042;-82
2021/04/03 07:10:40;;;;;;;32.30;5.60;;;6.70;75.50;5.70;102700.00;;;;4921334;29;20958;-77
2021/04/03 07:13:10;;;;;;;42.17;6.43;;;6.80;75.40;5.70;102687.00;;;;4935473;28;20747;-82
2021/04/03 07:15:37;;;;;;;37.80;5.47;;;6.90;75.30;5.80;102699.00;;;;4915909;29;20498;-79
2021/04/03 07:18:07;;;;;;;33.30;5.17;;;6.90;75.10;5.90;102695.00;;;;4936441;28;20596;-81
2021/04/03 07:20:36;;;;;;;34.17;5.10;;;6.90;75.50;5.90;102708.00;;;;4920133;28;20061;-84
2021/04/03 07:23:11;;;;;;;34.95;5.55;;;7.00;75.50;6.00;102710.00;;;;4917050;29;20055;-80
2021/04/03 07:25:45;;;;;;;33.75;5.40;;;7.10;75.00;6.00;102710.00;;;;4920466;28;20043;-80
2021/04/03 07:28:14;;;;;;;39.25;6.18;;;7.10;74.80;6.00;102702.00;;;;4934208;28;20601;-80
2021/04/03 07:30:44;;;;;;;32.20;5.10;;;7.10;74.70;6.10;102706.00;;;;4933457;29;20047;-80
2021/04/03 07:33:21;;;;;;;37.67;5.50;;;7.10;74.60;6.00;102715.00;;;;4888550;29;20044;-80
2021/04/03 07:36:00;;;;;;;36.65;5.40;;;7.10;74.50;6.10;102712.00;;;;4933169;28;20078;-82
2021/04/03 07:38:31;;;;;;;;;;;7.10;74.50;6.10;102715.00;;;;4933661;28;20043;-81
2021/04/03 07:41:01;;;;;;;27.73;4.40;;;7.20;74.40;6.20;102719.00;;;;4916907;29;19952;-82
2021/04/03 07:43:34;;;;;;;29.83;5.70;;;7.20;73.70;6.20;102723.00;;;;4931170;28;20134;-81
2021/04/03 07:46:33;;;;;;;29.80;5.57;;;7.20;73.80;6.30;102722.00;;;;4916129;29;20125;-79
2021/04/03 07:49:00;;;;;;;24.63;4.63;;;7.40;73.90;6.40;102718.00;;;;4926367;28;20083;-81
2021/04/03 07:51:32;;;;;;;33.30;6.07;;;7.40;73.40;6.40;102723.00;;;;4932293;28;20058;-82
2021/04/03 07:54:00;;;;;;;33.22;4.88;;;7.40;73.60;6.40;102713.00;;;;4932160;28;20883;-86
2021/04/03 07:56:46;;;;;;;32.50;4.90;;;7.50;73.70;6.50;102713.00;;;;4934382;28;20378;-84
2021/04/03 07:59:13;;;;;;;32.17;5.97;;;7.50;73.30;6.60;102720.00;;;;4936105;28;20051;-82
2021/04/03 08:01:40;;;;;;;23.65;5.28;;;7.60;73.30;6.70;102731.00;;;;4920593;28;20113;-83
2021/04/03 08:04:08;;;;;;;26.52;4.85;;;7.70;72.90;6.60;102729.00;;;;4935763;28;20649;-82
2021/04/03 08:06:40;;;;;;;35.78;5.35;;;7.60;72.90;6.60;102736.00;;;;4936450;28;20052;-83
2021/04/03 08:09:17;;;;;;;31.23;5.50;;;7.60;73.20;6.60;102733.00;;;;4934296;28;20035;-82
2021/04/03 08:11:45;;;;;;;24.38;4.75;;;7.70;72.90;6.70;102738.00;;;;4921652;28;20086;-82
2021/04/03 08:14:13;;;;;;;28.45;5.13;;;7.70;72.60;6.80;102740.00;;;;4935191;28;20040;-82
2021/04/03 08:16:40;;;;;;;37.50;6.00;;;7.70;73.00;6.80;102742.00;;;;4935124;28;20035;-83
2021/04/03 08:19:07;;;;;;;29.95;5.78;;;7.90;73.20;7.00;102749.00;;;;4905587;29;20178;-83
2021/04/03 08:21:45;;;;;;;31.48;5.32;;;7.90;72.30;7.00;102761.00;;;;4922410;28;20666;-82
2021/04/03 08:24:12;;;;;;;32.95;5.43;;;8.00;72.50;7.00;102746.00;;;;4936568;28;20040;-82
2021/04/03 08:26:40;;;;;;;28.75;3.83;;;8.00;71.80;7.10;102754.00;;;;4937407;28;20035;-83
2021/04/03 08:29:21;;;;;;;32.35;5.68;;;8.10;72.00;7.10;102753.00;;;;4934696;28;20047;-82
2021/04/03 08:31:49;;;;;;;24.55;5.30;;;8.20;71.80;7.20;102764.00;;;;4916287;28;20150;-82
2021/04/03 08:34:16;;;;;;;28.20;4.55;;;8.30;71.80;7.40;102755.00;;;;4937480;28;20031;-82
2021/04/03 08:36:42;;;;;;;33.33;5.10;;;8.30;71.20;7.40;102758.00;;;;4934417;28;20047;-84
2021/04/03 08:39:20;;;;;;;32.20;5.45;;;8.40;70.70;7.40;102767.00;;;;4910829;29;20455;-83
2021/04/03 08:41:50;;;;;;;29.88;4.32;;;8.30;69.80;7.40;102778.00;;;;4912680;29;20634;-81
2021/04/03 08:44:18;;;;;;;32.03;5.10;;;8.30;71.20;7.30;102775.00;;;;4915580;29;20478;-80
2021/04/03 08:46:51;;;;;;;36.85;4.85;;;;;7.40;102766.00;;;;4934351;28;20050;-81
2021/04/03 08:49:26;;;;;;;28.50;4.88;;;8.50;70.90;7.60;102766.00;;;;4918771;29;20117;-82
2021/04/03 08:51:53;;;;;;;25.77;5.05;;;8.50;68.50;7.50;102764.00;;;;4932177;28;20498;-83
2021/04/03 08:54:19;;;;;;;24.17;5.00;;;8.40;69.50;7.50;102776.00;;;;4905832;28;20051;-83
2021/04/03 08:56:46;;;;;;;36.90;5.50;;;8.50;70.20;7.50;102774.00;;;;4936790;28;20062;-84
2021/04/03 08:59:20;;;;;;;37.83;5.40;;;8.40;69.10;7.40;102772.00;;;;4938454;28;20054;-83
2021/04/03 09:01:50;;;;;;;25.85;5.00;;;8.40;70.30;7.30;102774.00;;;;4916067;28;20783;-82
2021/04/03 09:04:16;;;;;;;27.92;4.97;;;8.20;69.80;7.30;102778.00;;;;4921656;28;20047;-83
2021/04/03 09:06:57;;;;;;;29.40;5.97;;;8.30;70.60;7.30;102774.00;;;;4906591;29;20080;-83
2021/04/03 09:09:29;;;;;;;27.50;5.10;;;8.30;70.80;7.40;102772.00;;;;4932628;28;20047;-83
2021/04/03 09:12:06;;;;;;;31.80;5.05;;;8.40;70.10;7.50;102778.00;;;;4920741;29;20074;-86
2021/04/03 09:14:41;;;;;;;37.03;6.03;;;8.50;69.90;7.60;102780.00;;;;4902238;28;20618;-86
2021/04/03 09:17:28;;;;;;;30.63;4.78;;;8.50;69.90;7.60;102769.00;;;;4943913;28;20291;-83
2021/04/03 09:20:12;;;;;;;25.85;5.25;;;8.50;69.40;7.60;102771.00;;;;4915775;28;20404;-87
2021/04/03 09:22:43;;;;;;;34.28;5.78;;;8.50;69.20;7.60;102773.00;;;;4936497;28;20151;-85
2021/04/03 09:25:21;;;;;;;27.52;4.95;;;8.60;69.60;7.60;102773.00;;;;4937297;28;20154;-82
2021/04/03 09:28:04;;;;;;;24.48;4.85;;;8.70;69.70;7.70;102773.00;;;;4935491;28;20066;-84
2021/04/03 09:30:43;;;;;;;28.30;5.20;;;8.80;69.90;8.00;102769.00;;;;4921177;29;20137;-83
2021/04/03 09:33:25;;;;;;;19.30;4.60;;;9.00;69.90;8.30;102774.00;;;;4937833;28;20441;-82
2021/04/03 09:35:52;;;;;;;31.98;4.88;;;9.20;68.10;8.40;102776.00;;;;4935954;28;20043;-85
2021/04/03 09:38:29;;;;;;;;;;;9.30;67.70;8.30;102764.00;;;;4937278;28;20114;-85
2021/04/03 09:40:55;;;;;;;23.17;4.35;;;9.20;68.20;8.40;102763.00;;;;4917525;28;20377;-85
2021/04/03 09:43:39;;;;;;;22.95;4.93;;;9.30;67.80;8.30;102766.00;;;;4919471;29;20052;-85
2021/04/03 09:46:06;;;;;;;24.45;4.78;;;9.30;67.00;8.40;102760.00;;;;4933641;28;20114;-84
2021/04/03 09:48:31;;;;;;;26.75;4.93;;;9.30;66.40;8.40;102766.00;;;;4890369;29;20040;-85
2021/04/03 09:50:59;;;;;;;32.03;5.47;;;9.40;67.60;8.50;102770.00;;;;4908074;28;20053;-84
2021/04/03 09:53:29;;;;;;;38.85;5.18;;;9.60;68.00;8.80;102761.00;;;;4933681;28;20063;-85
2021/04/03 09:55:55;;;;;;;25.95;5.57;;;9.90;67.50;9.20;102762.00;;;;4935317;28;20061;-85
2021/04/03 09:58:22;;;;;;;26.23;4.78;;;10.00;67.40;9.30;102759.00;;;;4931285;28;20057;-89
2021/04/03 10:00:48;;;;;;;23.30;3.92;;;10.20;65.20;9.40;102764.00;;;;4922017;29;20055;-86
2021/04/03 10:03:14;;;;;;;29.02;5.13;;;10.20;64.20;9.50;102769.00;;;;4916432;28;20051;-84
2021/04/03 10:05:40;;;;;;;26.27;4.75;;;10.50;65.10;9.70;102773.00;;;;4928379;28;20047;-84
2021/04/03 10:08:06;;;;;;;31.08;4.40;;;10.70;63.80;10.00;102768.00;;;;4917165;29;20031;-85
2021/04/03 10:10:32;;;;;;;25.60;4.75;;;10.80;63.50;10.10;102770.00;;;;4932938;28;20835;-86
2021/04/03 10:12:58;;;;;;;23.35;4.35;;;10.80;62.10;10.00;102770.00;;;;4923287;28;20054;-87
2021/04/03 10:15:25;;;;;;;18.38;3.17;;;10.60;59.70;9.70;102770.00;;;;4930390;28;20094;-82
2021/04/03 10:17:51;;;;;;;17.83;4.05;;;10.40;62.90;9.50;102766.00;;;;4917757;28;20044;-83
2021/04/03 10:20:18;;;;;;;22.67;4.03;;;10.40;63.30;9.50;102763.00;;;;4931996;28;20058;-83
2021/04/03 10:22:45;;;;;;;23.10;3.83;;;;;9.70;102762.00;;;;4895132;29;20036;-83
2021/04/03 10:25:13;;;;;;;24.67;4.57;;;10.60;61.10;9.90;102765.00;;;;4931981;28;20051;-84
2021/04/03 10:27:39;;;;;;;24.63;4.15;;;10.80;62.40;10.10;102775.00;;;;4902044;28;20113;-83
2021/04/03 10:30:07;;;;;;;23.08;4.20;;;10.90;62.50;10.30;102780.00;;;;4933298;28;20062;-83
2021/04/03 10:32:33;;;;;;;;;;;11.00;60.40;10.30;102772.00;;;;4888153;29;20126;-83
2021/04/03 10:34:59;;;;;;;23.10;4.30;;;11.30;62.20;10.50;102773.00;;;;4904036;29;20013;-82
2021/04/03 10:37:26;;;;;;;20.47;3.93;;;11.30;61.00;10.60;102775.00;;;;4900076;29;20394;-82
2021/04/03 10:39:52;;;;;;;22.80;3.88;;;11.50;60.30;10.80;102760.00;;;;4919046;29;20066;-83
2021/04/03 10:42:18;;;;;;;21.58;4.15;;;11.60;58.90;11.00;102775.00;;;;4900244;29;20051;-82
2021/04/03 10:44:44;;;;;;;21.80;4.45;;;11.90;60.50;11.30;102785.00;;;;4903494;29;20047;-82
2021/04/03 10:47:10;;;;;;;24.30;5.22;;;12.00;61.00;11.40;102772.00;;;;4915995;29;20039;-84
2021/04/03 10:49:36;;;;;;;25.33;4.97;;;12.10;60.40;11.40;102784.00;;;;4901252;28;20039;-83
2021/04/03 10:52:03;;;;;;;23.30;4.72;;;12.20;60.20;11.50;102788.00;;;;4936228;28;20047;-83
2021/04/03 10:54:30;;;;;;;23.60;4.72;;;;;11.20;102786.00;;;;4913861;29;20039;-84
2021/04/03 10:56:56;;;;;;;29.80;5.80;;;12.00;60.90;11.10;102769.00;;;;4921153;29;20063;-83
2021/04/03 10:59:22;;;;;;;23.10;4.28;;;11.90;60.80;11.00;102784.00;;;;4917166;28;20925;-82
2021/04/03 11:01:48;;;;;;;21.38;4.90;;;11.80;60.50;10.90;102775.00;;;;4917682;29;20035;-83
2021/04/03 11:04:15;;;;;;;25.55;4.82;;;11.60;60.70;10.70;102776.00;;;;4917118;29;20053;-83
2021/04/03 11:06:41;;;;;;;21.73;4.80;;;11.50;60.10;10.60;102785.00;;;;4917040;28;20688;-82
2021/04/03 11:09:07;;;;;;;23.42;4.25;;;11.50;60.50;10.70;102764.00;;;;4935150;28;20331;-81
2021/04/03 11:11:33;;;;;;;22.63;4.43;;;11.70;60.30;11.00;102770.00;;;;4899922;28;20773;-82
2021/04/03 11:13:59;;;;;;;20.80;4.03;;;11.80;59.90;11.10;102769.00;;;;4934861;29;20043;-82